< < Back
Terminal Aerodrome Forecast


Current Version              Previous Versions:   1  2  3  4  5  6  7  8  9  

Terminal Aerodrome Forecast

277
FTUS42 KTAE 281720
TAFVLD
TAF
KVLD 281720Z 2818/2918 14010KT P6SM FEW045 SCT060
     FM290000 00000KT P6SM SCT250=

Latest METAR

426
SAUS70 KWBC 291600 RRD
MTRVLD
METAR KVLD 291553Z VRB03KT 10SM SCT046 BKN055 27/16 A3019 RMK AO2 SLP228
T02720161


USA.gov is the U.S. government's official web portal to all federal, state and local government web resources and services.